sensor_id;sensor_type;location;lat;lon;timestamp;temperature;humidity
13488;DHT22;6816;48.506;9.050;2022-10-16T00:00:52;17.30;99.90
13488;DHT22;6816;48.506;9.050;2022-10-16T00:03:54;17.30;99.90
13488;DHT22;6816;48.506;9.050;2022-10-16T00:06:55;17.20;99.90
13488;DHT22;6816;48.506;9.050;2022-10-16T00:09:55;17.20;99.90
13488;DHT22;6816;48.506;9.050;2022-10-16T00:12:56;17.20;99.90
13488;DHT22;6816;48.506;9.050;2022-10-16T00:15:58;17.10;99.90
13488;DHT22;6816;48.506;9.050;2022-10-16T00:18:59;17.10;99.90
13488;DHT22;6816;48.506;9.050;2022-10-16T00:22:00;17.00;99.90
13488;DHT22;6816;48.506;9.050;2022-10-16T00:25:01;17.00;99.90
13488;DHT22;6816;48.506;9.050;2022-10-16T00:28:01;16.90;99.90
13488;DHT22;6816;48.506;9.050;2022-10-16T00:31:04;16.90;99.90
13488;DHT22;6816;48.506;9.050;2022-10-16T00:34:05;16.80;99.90
13488;DHT22;6816;48.506;9.050;2022-10-16T00:37:05;16.80;99.90
13488;DHT22;6816;48.506;9.050;2022-10-16T00:40:06;16.80;99.90
13488;DHT22;6816;48.506;9.050;2022-10-16T00:46:41;16.70;99.90
13488;DHT22;6816;48.506;9.050;2022-10-16T00:49:42;16.70;99.90
13488;DHT22;6816;48.506;9.050;2022-10-16T00:52:46;16.60;99.90
13488;DHT22;6816;48.506;9.050;2022-10-16T00:55:47;16.60;99.90
13488;DHT22;6816;48.506;9.050;2022-10-16T00:58:48;16.60;99.90
13488;DHT22;6816;48.506;9.050;2022-10-16T01:01:48;16.60;99.90
13488;DHT22;6816;48.506;9.050;2022-10-16T01:04:51;16.60;99.90
13488;DHT22;6816;48.506;9.050;2022-10-16T01:08:13;16.60;99.90
13488;DHT22;6816;48.506;9.050;2022-10-16T01:11:34;16.60;99.90
13488;DHT22;6816;48.506;9.050;2022-10-16T01:14:48;16.50;99.90
13488;DHT22;6816;48.506;9.050;2022-10-16T01:18:03;16.50;99.90
13488;DHT22;6816;48.506;9.050;2022-10-16T01:21:10;16.50;99.90
13488;DHT22;6816;48.506;9.050;2022-10-16T01:24:44;16.50;99.90
13488;DHT22;6816;48.506;9.050;2022-10-16T01:27:48;16.50;99.90
13488;DHT22;6816;48.506;9.050;2022-10-16T01:30:52;16.50;99.90
13488;DHT22;6816;48.506;9.050;2022-10-16T01:34:03;16.50;99.90
13488;DHT22;6816;48.506;9.050;2022-10-16T01:37:09;16.50;99.90
13488;DHT22;6816;48.506;9.050;2022-10-16T01:40:13;16.50;99.90
13488;DHT22;6816;48.506;9.050;2022-10-16T01:43:20;16.40;99.90
13488;DHT22;6816;48.506;9.050;2022-10-16T01:46:23;16.40;99.90
13488;DHT22;6816;48.506;9.050;2022-10-16T01:49:29;16.40;99.90
13488;DHT22;6816;48.506;9.050;2022-10-16T01:52:33;16.40;99.90
13488;DHT22;6816;48.506;9.050;2022-10-16T01:55:43;16.40;99.90
13488;DHT22;6816;48.506;9.050;2022-10-16T01:58:55;16.50;99.90
13488;DHT22;6816;48.506;9.050;2022-10-16T02:02:00;16.50;99.90
13488;DHT22;6816;48.506;9.050;2022-10-16T02:08:11;16.50;99.90
13488;DHT22;6816;48.506;9.050;2022-10-16T02:11:12;16.50;99.90
13488;DHT22;6816;48.506;9.050;2022-10-16T02:14:13;16.50;99.90
13488;DHT22;6816;48.506;9.050;2022-10-16T02:17:16;16.50;99.90
13488;DHT22;6816;48.506;9.050;2022-10-16T02:20:19;16.60;99.90
13488;DHT22;6816;48.506;9.050;2022-10-16T02:23:37;16.60;99.90
13488;DHT22;6816;48.506;9.050;2022-10-16T02:26:56;16.60;99.90
13488;DHT22;6816;48.506;9.050;2022-10-16T02:30:09;16.60;99.90
13488;DHT22;6816;48.506;9.050;2022-10-16T02:33:14;16.60;99.90
13488;DHT22;6816;48.506;9.050;2022-10-16T02:36:15;16.60;99.90
13488;DHT22;6816;48.506;9.050;2022-10-16T02:39:16;16.60;99.90
13488;DHT22;6816;48.506;9.050;2022-10-16T02:42:18;16.60;99.90
13488;DHT22;6816;48.506;9.050;2022-10-16T02:45:19;16.60;99.90
13488;DHT22;6816;48.506;9.050;2022-10-16T02:48:20;16.60;99.90
13488;DHT22;6816;48.506;9.050;2022-10-16T02:51:21;16.50;99.90
13488;DHT22;6816;48.506;9.050;2022-10-16T02:54:21;16.50;99.90
13488;DHT22;6816;48.506;9.050;2022-10-16T02:57:22;16.50;99.90
13488;DHT22;6816;48.506;9.050;2022-10-16T03:00:22;16.50;99.90
13488;DHT22;6816;48.506;9.050;2022-10-16T03:03:23;16.50;99.90
13488;DHT22;6816;48.506;9.050;2022-10-16T03:06:24;16.40;99.90
13488;DHT22;6816;48.506;9.050;2022-10-16T03:09:24;16.50;99.90
13488;DHT22;6816;48.506;9.050;2022-10-16T03:12:28;16.40;99.90
13488;DHT22;6816;48.506;9.050;2022-10-16T03:15:28;16.40;99.90
13488;DHT22;6816;48.506;9.050;2022-10-16T03:18:29;16.30;99.90
13488;DHT22;6816;48.506;9.050;2022-10-16T03:21:30;16.30;99.90
13488;DHT22;6816;48.506;9.050;2022-10-16T03:24:30;16.30;99.90
13488;DHT22;6816;48.506;9.050;2022-10-16T03:27:31;16.30;99.90
13488;DHT22;6816;48.506;9.050;2022-10-16T03:30:31;16.30;99.90
13488;DHT22;6816;48.506;9.050;2022-10-16T03:33:32;16.30;99.90
13488;DHT22;6816;48.506;9.050;2022-10-16T03:36:33;16.30;99.90
13488;DHT22;6816;48.506;9.050;2022-10-16T03:39:33;16.30;99.90
13488;DHT22;6816;48.506;9.050;2022-10-16T03:42:34;16.30;99.90
13488;DHT22;6816;48.506;9.050;2022-10-16T03:45:34;16.30;99.90
13488;DHT22;6816;48.506;9.050;2022-10-16T03:48:35;16.30;99.90
13488;DHT22;6816;48.506;9.050;2022-10-16T03:51:36;16.30;99.90
13488;DHT22;6816;48.506;9.050;2022-10-16T03:54:36;16.30;99.90
13488;DHT22;6816;48.506;9.050;2022-10-16T03:57:37;16.30;99.90
13488;DHT22;6816;48.506;9.050;2022-10-16T04:00:42;16.30;99.90
13488;DHT22;6816;48.506;9.050;2022-10-16T04:03:42;16.20;99.90
13488;DHT22;6816;48.506;9.050;2022-10-16T04:06:43;16.20;99.90
13488;DHT22;6816;48.506;9.050;2022-10-16T04:09:44;16.20;99.90
13488;DHT22;6816;48.506;9.050;2022-10-16T04:12:45;16.20;99.90
13488;DHT22;6816;48.506;9.050;2022-10-16T04:15:45;16.40;99.90
13488;DHT22;6816;48.506;9.050;2022-10-16T04:18:46;16.20;99.90
13488;DHT22;6816;48.506;9.050;2022-10-16T04:21:47;16.20;99.90
13488;DHT22;6816;48.506;9.050;2022-10-16T04:24:47;16.20;99.90
13488;DHT22;6816;48.506;9.050;2022-10-16T04:27:48;16.20;99.90
13488;DHT22;6816;48.506;9.050;2022-10-16T04:30:48;16.20;99.90
13488;DHT22;6816;48.506;9.050;2022-10-16T04:33:49;16.20;99.90
13488;DHT22;6816;48.506;9.050;2022-10-16T04:36:50;16.10;99.90
13488;DHT22;6816;48.506;9.050;2022-10-16T04:39:51;16.10;99.90
13488;DHT22;6816;48.506;9.050;2022-10-16T04:42:51;16.10;99.90
13488;DHT22;6816;48.506;9.050;2022-10-16T04:45:52;16.10;99.90
13488;DHT22;6816;48.506;9.050;2022-10-16T04:48:53;16.10;99.90
13488;DHT22;6816;48.506;9.050;2022-10-16T04:51:54;16.10;99.90
13488;DHT22;6816;48.506;9.050;2022-10-16T04:54:54;16.20;99.90
13488;DHT22;6816;48.506;9.050;2022-10-16T04:57:56;16.00;99.90
13488;DHT22;6816;48.506;9.050;2022-10-16T05:00:57;16.10;99.90
13488;DHT22;6816;48.506;9.050;2022-10-16T05:03:58;16.10;99.90
13488;DHT22;6816;48.506;9.050;2022-10-16T05:06:58;16.10;99.90
13488;DHT22;6816;48.506;9.050;2022-10-16T05:09:59;16.10;99.90
13488;DHT22;6816;48.506;9.050;2022-10-16T05:12:59;16.00;99.90
13488;DHT22;6816;48.506;9.050;2022-10-16T05:16:00;16.00;99.90
13488;DHT22;6816;48.506;9.050;2022-10-16T05:19:01;16.00;99.90
13488;DHT22;6816;48.506;9.050;2022-10-16T05:22:01;16.00;99.90
13488;DHT22;6816;48.506;9.050;2022-10-16T05:25:02;15.90;99.90
13488;DHT22;6816;48.506;9.050;2022-10-16T05:28:03;15.90;99.90
13488;DHT22;6816;48.506;9.050;2022-10-16T05:31:05;15.90;99.90
13488;DHT22;6816;48.506;9.050;2022-10-16T05:34:07;15.80;99.90
13488;DHT22;6816;48.506;9.050;2022-10-16T05:37:07;15.80;99.90
13488;DHT22;6816;48.506;9.050;2022-10-16T05:40:09;15.80;99.90
13488;DHT22;6816;48.506;9.050;2022-10-16T05:43:09;15.70;99.90
13488;DHT22;6816;48.506;9.050;2022-10-16T05:46:10;15.70;99.90
13488;DHT22;6816;48.506;9.050;2022-10-16T05:49:11;15.70;99.90
13488;DHT22;6816;48.506;9.050;2022-10-16T05:52:11;15.70;99.90
13488;DHT22;6816;48.506;9.050;2022-10-16T05:55:12;15.60;99.90
13488;DHT22;6816;48.506;9.050;2022-10-16T05:58:12;15.60;99.90
13488;DHT22;6816;48.506;9.050;2022-10-16T06:01:15;15.50;99.90
13488;DHT22;6816;48.506;9.050;2022-10-16T06:04:16;15.60;99.90
13488;DHT22;6816;48.506;9.050;2022-10-16T06:07:17;15.60;99.90
13488;DHT22;6816;48.506;9.050;2022-10-16T06:10:17;15.60;99.90
13488;DHT22;6816;48.506;9.050;2022-10-16T06:13:18;15.70;99.90
13488;DHT22;6816;48.506;9.050;2022-10-16T06:16:19;15.70;99.90
13488;DHT22;6816;48.506;9.050;2022-10-16T06:19:20;15.70;99.90
13488;DHT22;6816;48.506;9.050;2022-10-16T06:22:21;15.70;99.90
13488;DHT22;6816;48.506;9.050;2022-10-16T06:25:21;15.70;99.90
13488;DHT22;6816;48.506;9.050;2022-10-16T06:28:22;15.70;99.90
13488;DHT22;6816;48.506;9.050;2022-10-16T06:31:23;15.70;99.90
13488;DHT22;6816;48.506;9.050;2022-10-16T06:34:27;15.80;99.90
13488;DHT22;6816;48.506;9.050;2022-10-16T06:37:28;15.90;99.90
13488;DHT22;6816;48.506;9.050;2022-10-16T06:40:28;15.90;99.90
13488;DHT22;6816;48.506;9.050;2022-10-16T06:43:30;16.00;99.90
13488;DHT22;6816;48.506;9.050;2022-10-16T06:46:35;16.00;99.90
13488;DHT22;6816;48.506;9.050;2022-10-16T06:49:36;16.10;99.90
13488;DHT22;6816;48.506;9.050;2022-10-16T06:52:36;16.20;99.90
13488;DHT22;6816;48.506;9.050;2022-10-16T06:55:37;16.20;99.90
13488;DHT22;6816;48.506;9.050;2022-10-16T06:58:38;16.30;99.90
13488;DHT22;6816;48.506;9.050;2022-10-16T07:01:39;16.40;99.90
13488;DHT22;6816;48.506;9.050;2022-10-16T07:04:40;16.40;99.90
13488;DHT22;6816;48.506;9.050;2022-10-16T07:07:40;16.50;99.90
13488;DHT22;6816;48.506;9.050;2022-10-16T07:10:41;16.50;99.90
13488;DHT22;6816;48.506;9.050;2022-10-16T07:13:43;16.60;99.90
13488;DHT22;6816;48.506;9.050;2022-10-16T07:16:44;16.60;99.90
13488;DHT22;6816;48.506;9.050;2022-10-16T07:19:45;16.70;99.90
13488;DHT22;6816;48.506;9.050;2022-10-16T07:22:45;16.70;99.90
13488;DHT22;6816;48.506;9.050;2022-10-16T07:25:53;16.80;99.90
13488;DHT22;6816;48.506;9.050;2022-10-16T07:28:54;16.90;99.90
13488;DHT22;6816;48.506;9.050;2022-10-16T07:31:55;16.90;99.90
13488;DHT22;6816;48.506;9.050;2022-10-16T07:34:56;17.00;99.90
13488;DHT22;6816;48.506;9.050;2022-10-16T07:37:56;17.00;99.90
13488;DHT22;6816;48.506;9.050;2022-10-16T07:40:58;17.10;99.90
13488;DHT22;6816;48.506;9.050;2022-10-16T07:43:59;17.10;99.90
13488;DHT22;6816;48.506;9.050;2022-10-16T07:47:00;17.20;99.90
13488;DHT22;6816;48.506;9.050;2022-10-16T07:50:01;17.30;99.90
13488;DHT22;6816;48.506;9.050;2022-10-16T07:53:02;17.30;99.90
13488;DHT22;6816;48.506;9.050;2022-10-16T07:56:05;17.50;99.90
13488;DHT22;6816;48.506;9.050;2022-10-16T07:59:06;17.50;99.90
13488;DHT22;6816;48.506;9.050;2022-10-16T08:02:07;17.60;99.90
13488;DHT22;6816;48.506;9.050;2022-10-16T08:05:08;17.70;99.90
13488;DHT22;6816;48.506;9.050;2022-10-16T08:08:13;17.80;99.90
13488;DHT22;6816;48.506;9.050;2022-10-16T08:11:15;17.90;99.90
13488;DHT22;6816;48.506;9.050;2022-10-16T08:14:15;18.00;99.90
13488;DHT22;6816;48.506;9.050;2022-10-16T08:17:16;18.10;99.90
13488;DHT22;6816;48.506;9.050;2022-10-16T08:20:17;18.20;99.90
13488;DHT22;6816;48.506;9.050;2022-10-16T08:23:17;18.30;99.90
13488;DHT22;6816;48.506;9.050;2022-10-16T08:26:18;18.40;99.90
13488;DHT22;6816;48.506;9.050;2022-10-16T08:29:19;18.50;99.90
13488;DHT22;6816;48.506;9.050;2022-10-16T08:32:20;18.60;99.90
13488;DHT22;6816;48.506;9.050;2022-10-16T08:35:20;18.80;99.90
13488;DHT22;6816;48.506;9.050;2022-10-16T08:38:21;18.90;99.90
13488;DHT22;6816;48.506;9.050;2022-10-16T08:45:08;19.20;99.90
13488;DHT22;6816;48.506;9.050;2022-10-16T08:48:20;19.30;99.90
13488;DHT22;6816;48.506;9.050;2022-10-16T08:51:32;19.30;99.90
13488;DHT22;6816;48.506;9.050;2022-10-16T08:54:53;19.40;99.90
13488;DHT22;6816;48.506;9.050;2022-10-16T08:57:55;19.50;99.90
13488;DHT22;6816;48.506;9.050;2022-10-16T09:01:01;19.60;99.90
13488;DHT22;6816;48.506;9.050;2022-10-16T09:08:19;19.70;99.90
13488;DHT22;6816;48.506;9.050;2022-10-16T09:11:31;19.80;99.90
13488;DHT22;6816;48.506;9.050;2022-10-16T09:24:23;20.00;99.90
13488;DHT22;6816;48.506;9.050;2022-10-16T09:27:26;20.10;99.90
13488;DHT22;6816;48.506;9.050;2022-10-16T09:30:28;20.20;99.90
13488;DHT22;6816;48.506;9.050;2022-10-16T09:33:37;20.30;99.90
13488;DHT22;6816;48.506;9.050;2022-10-16T09:36:42;20.30;99.90
13488;DHT22;6816;48.506;9.050;2022-10-16T09:39:53;20.40;99.90
13488;DHT22;6816;48.506;9.050;2022-10-16T09:43:02;20.50;99.90
13488;DHT22;6816;48.506;9.050;2022-10-16T09:46:06;20.60;99.90
13488;DHT22;6816;48.506;9.050;2022-10-16T09:49:25;20.70;99.90
13488;DHT22;6816;48.506;9.050;2022-10-16T09:52:26;20.70;99.90
13488;DHT22;6816;48.506;9.050;2022-10-16T09:55:26;20.70;99.90
13488;DHT22;6816;48.506;9.050;2022-10-16T09:58:27;20.70;99.90
13488;DHT22;6816;48.506;9.050;2022-10-16T10:01:52;20.70;99.90
13488;DHT22;6816;48.506;9.050;2022-10-16T10:04:54;20.70;99.90
13488;DHT22;6816;48.506;9.050;2022-10-16T10:08:00;20.70;99.90
13488;DHT22;6816;48.506;9.050;2022-10-16T10:11:03;20.70;99.90
13488;DHT22;6816;48.506;9.050;2022-10-16T10:14:09;20.70;99.90
13488;DHT22;6816;48.506;9.050;2022-10-16T10:23:29;21.00;99.90
13488;DHT22;6816;48.506;9.050;2022-10-16T10:26:32;21.10;99.90
13488;DHT22;6816;48.506;9.050;2022-10-16T10:33:12;21.50;99.90
13488;DHT22;6816;48.506;9.050;2022-10-16T10:36:29;21.70;99.90
13488;DHT22;6816;48.506;9.050;2022-10-16T10:39:43;21.90;99.90
13488;DHT22;6816;48.506;9.050;2022-10-16T10:43:09;22.10;99.90
13488;DHT22;6816;48.506;9.050;2022-10-16T10:46:28;22.30;99.90
13488;DHT22;6816;48.506;9.050;2022-10-16T10:55:49;22.90;99.90
13488;DHT22;6816;48.506;9.050;2022-10-16T11:08:43;23.90;99.90
13488;DHT22;6816;48.506;9.050;2022-10-16T11:15:07;24.40;99.90
13488;DHT22;6816;48.506;9.050;2022-10-16T11:18:38;24.50;99.90
13488;DHT22;6816;48.506;9.050;2022-10-16T11:21:47;24.70;98.20
13488;DHT22;6816;48.506;9.050;2022-10-16T11:25:06;24.80;98.90
13488;DHT22;6816;48.506;9.050;2022-10-16T11:28:35;24.80;98.50
13488;DHT22;6816;48.506;9.050;2022-10-16T11:31:48;24.90;98.30
13488;DHT22;6816;48.506;9.050;2022-10-16T11:34:53;25.00;99.60
13488;DHT22;6816;48.506;9.050;2022-10-16T11:37:58;25.20;99.00
13488;DHT22;6816;48.506;9.050;2022-10-16T11:47:51;25.90;95.60
13488;DHT22;6816;48.506;9.050;2022-10-16T11:50:59;26.20;96.80
13488;DHT22;6816;48.506;9.050;2022-10-16T11:54:10;26.50;97.80
13488;DHT22;6816;48.506;9.050;2022-10-16T11:57:27;26.80;99.30
13488;DHT22;6816;48.506;9.050;2022-10-16T12:00:31;27.20;96.50
13488;DHT22;6816;48.506;9.050;2022-10-16T12:07:03;27.60;96.30
13488;DHT22;6816;48.506;9.050;2022-10-16T12:10:24;27.60;95.20
13488;DHT22;6816;48.506;9.050;2022-10-16T12:13:37;27.60;91.30
13488;DHT22;6816;48.506;9.050;2022-10-16T12:20:28;27.40;94.00
13488;DHT22;6816;48.506;9.050;2022-10-16T12:23:38;27.40;90.90
13488;DHT22;6816;48.506;9.050;2022-10-16T12:26:39;27.30;93.70
13488;DHT22;6816;48.506;9.050;2022-10-16T12:29:44;27.20;92.70
13488;DHT22;6816;48.506;9.050;2022-10-16T12:32:53;27.10;92.30
13488;DHT22;6816;48.506;9.050;2022-10-16T12:35:55;27.00;90.80
13488;DHT22;6816;48.506;9.050;2022-10-16T12:38:56;27.00;92.70
13488;DHT22;6816;48.506;9.050;2022-10-16T12:42:03;26.90;92.40
13488;DHT22;6816;48.506;9.050;2022-10-16T12:45:29;26.80;90.50
13488;DHT22;6816;48.506;9.050;2022-10-16T12:48:31;26.70;88.40
13488;DHT22;6816;48.506;9.050;2022-10-16T12:54:37;26.50;92.00
13488;DHT22;6816;48.506;9.050;2022-10-16T13:00:57;26.40;90.70
13488;DHT22;6816;48.506;9.050;2022-10-16T13:04:20;26.30;90.10
13488;DHT22;6816;48.506;9.050;2022-10-16T13:14:07;26.10;92.00
13488;DHT22;6816;48.506;9.050;2022-10-16T13:20:59;26.00;89.40
13488;DHT22;6816;48.506;9.050;2022-10-16T13:24:17;25.90;90.00
13488;DHT22;6816;48.506;9.050;2022-10-16T13:27:55;25.80;91.30
13488;DHT22;6816;48.506;9.050;2022-10-16T13:30:58;25.70;90.50
13488;DHT22;6816;48.506;9.050;2022-10-16T13:33:59;25.60;92.40
13488;DHT22;6816;48.506;9.050;2022-10-16T13:37:00;25.60;93.00
13488;DHT22;6816;48.506;9.050;2022-10-16T13:40:19;25.60;92.70
13488;DHT22;6816;48.506;9.050;2022-10-16T13:43:25;25.60;91.10
13488;DHT22;6816;48.506;9.050;2022-10-16T13:46:26;25.60;91.40
13488;DHT22;6816;48.506;9.050;2022-10-16T13:49:27;25.70;91.90
13488;DHT22;6816;48.506;9.050;2022-10-16T13:52:28;25.60;91.50
13488;DHT22;6816;48.506;9.050;2022-10-16T13:55:29;25.60;91.50
13488;DHT22;6816;48.506;9.050;2022-10-16T13:58:30;25.60;91.80
13488;DHT22;6816;48.506;9.050;2022-10-16T14:01:42;25.60;91.80
13488;DHT22;6816;48.506;9.050;2022-10-16T14:04:43;25.60;92.00
13488;DHT22;6816;48.506;9.050;2022-10-16T14:07:49;25.60;92.30
13488;DHT22;6816;48.506;9.050;2022-10-16T14:10:53;25.60;91.00
13488;DHT22;6816;48.506;9.050;2022-10-16T14:13:55;25.60;91.60
13488;DHT22;6816;48.506;9.050;2022-10-16T14:16:56;25.60;91.80
13488;DHT22;6816;48.506;9.050;2022-10-16T14:19:58;25.60;92.20
13488;DHT22;6816;48.506;9.050;2022-10-16T14:26:25;25.60;91.30
13488;DHT22;6816;48.506;9.050;2022-10-16T14:29:28;25.60;93.20
13488;DHT22;6816;48.506;9.050;2022-10-16T14:32:31;25.60;93.20
13488;DHT22;6816;48.506;9.050;2022-10-16T14:35:37;25.50;92.40
13488;DHT22;6816;48.506;9.050;2022-10-16T14:38:47;25.50;91.50
13488;DHT22;6816;48.506;9.050;2022-10-16T14:41:50;25.60;92.70
13488;DHT22;6816;48.506;9.050;2022-10-16T14:44:52;25.50;92.10
13488;DHT22;6816;48.506;9.050;2022-10-16T14:47:59;25.50;92.10
13488;DHT22;6816;48.506;9.050;2022-10-16T14:51:00;25.50;91.50
13488;DHT22;6816;48.506;9.050;2022-10-16T14:54:01;25.40;92.40
13488;DHT22;6816;48.506;9.050;2022-10-16T14:57:02;25.40;92.20
13488;DHT22;6816;48.506;9.050;2022-10-16T15:00:08;25.40;91.90
13488;DHT22;6816;48.506;9.050;2022-10-16T15:03:10;25.40;91.50
13488;DHT22;6816;48.506;9.050;2022-10-16T15:06:12;25.30;91.30
13488;DHT22;6816;48.506;9.050;2022-10-16T15:09:13;25.20;90.90
13488;DHT22;6816;48.506;9.050;2022-10-16T15:12:14;25.20;91.30
13488;DHT22;6816;48.506;9.050;2022-10-16T15:18:15;25.00;91.50
13488;DHT22;6816;48.506;9.050;2022-10-16T15:21:28;24.90;91.40
13488;DHT22;6816;48.506;9.050;2022-10-16T15:24:29;24.80;91.00
13488;DHT22;6816;48.506;9.050;2022-10-16T15:27:30;24.70;91.60
13488;DHT22;6816;48.506;9.050;2022-10-16T15:30:31;24.70;91.90
13488;DHT22;6816;48.506;9.050;2022-10-16T15:33:31;24.60;92.00
13488;DHT22;6816;48.506;9.050;2022-10-16T15:36:36;24.50;92.30
13488;DHT22;6816;48.506;9.050;2022-10-16T15:39:37;24.50;92.20
13488;DHT22;6816;48.506;9.050;2022-10-16T15:42:38;24.40;92.20
13488;DHT22;6816;48.506;9.050;2022-10-16T15:45:38;24.30;92.10
13488;DHT22;6816;48.506;9.050;2022-10-16T15:48:39;24.30;92.30
13488;DHT22;6816;48.506;9.050;2022-10-16T15:51:41;24.20;92.30
13488;DHT22;6816;48.506;9.050;2022-10-16T15:54:42;24.10;92.10
13488;DHT22;6816;48.506;9.050;2022-10-16T15:57:43;24.00;92.10
13488;DHT22;6816;48.506;9.050;2022-10-16T16:00:44;23.90;92.10
13488;DHT22;6816;48.506;9.050;2022-10-16T16:03:44;23.80;92.30
13488;DHT22;6816;48.506;9.050;2022-10-16T16:06:45;23.70;92.50
13488;DHT22;6816;48.506;9.050;2022-10-16T16:09:46;23.60;92.60
13488;DHT22;6816;48.506;9.050;2022-10-16T16:12:48;23.50;92.80
13488;DHT22;6816;48.506;9.050;2022-10-16T16:15:52;23.30;92.90
13488;DHT22;6816;48.506;9.050;2022-10-16T16:18:53;23.20;93.00
13488;DHT22;6816;48.506;9.050;2022-10-16T16:21:54;23.10;93.10
13488;DHT22;6816;48.506;9.050;2022-10-16T16:24:54;22.90;93.30
13488;DHT22;6816;48.506;9.050;2022-10-16T16:27:55;22.80;93.50
13488;DHT22;6816;48.506;9.050;2022-10-16T16:30:55;22.60;93.60
13488;DHT22;6816;48.506;9.050;2022-10-16T16:33:56;22.50;94.20
13488;DHT22;6816;48.506;9.050;2022-10-16T16:36:57;22.40;94.00
13488;DHT22;6816;48.506;9.050;2022-10-16T16:39:58;22.30;94.10
13488;DHT22;6816;48.506;9.050;2022-10-16T16:42:59;22.20;94.20
13488;DHT22;6816;48.506;9.050;2022-10-16T16:46:01;22.00;94.20
13488;DHT22;6816;48.506;9.050;2022-10-16T16:49:04;21.90;94.20
13488;DHT22;6816;48.506;9.050;2022-10-16T16:52:04;21.80;94.10
13488;DHT22;6816;48.506;9.050;2022-10-16T16:55:05;21.70;94.30
13488;DHT22;6816;48.506;9.050;2022-10-16T16:58:06;21.60;94.40
13488;DHT22;6816;48.506;9.050;2022-10-16T17:01:09;21.40;94.50
13488;DHT22;6816;48.506;9.050;2022-10-16T17:04:10;21.30;94.30
13488;DHT22;6816;48.506;9.050;2022-10-16T17:07:11;21.20;94.60
13488;DHT22;6816;48.506;9.050;2022-10-16T17:10:12;21.10;94.70
13488;DHT22;6816;48.506;9.050;2022-10-16T17:13:13;21.00;94.80
13488;DHT22;6816;48.506;9.050;2022-10-16T17:16:14;20.90;94.90
13488;DHT22;6816;48.506;9.050;2022-10-16T17:19:16;20.80;95.00
13488;DHT22;6816;48.506;9.050;2022-10-16T17:22:18;20.70;94.90
13488;DHT22;6816;48.506;9.050;2022-10-16T17:25:19;20.60;95.10
13488;DHT22;6816;48.506;9.050;2022-10-16T17:28:20;20.50;95.30
13488;DHT22;6816;48.506;9.050;2022-10-16T17:31:30;20.40;95.40
13488;DHT22;6816;48.506;9.050;2022-10-16T17:34:31;20.40;95.30
13488;DHT22;6816;48.506;9.050;2022-10-16T17:37:31;20.30;95.60
13488;DHT22;6816;48.506;9.050;2022-10-16T17:40:32;20.20;95.60
13488;DHT22;6816;48.506;9.050;2022-10-16T17:43:33;20.10;95.60
13488;DHT22;6816;48.506;9.050;2022-10-16T17:46:34;20.00;95.70
13488;DHT22;6816;48.506;9.050;2022-10-16T17:49:35;20.00;95.80
13488;DHT22;6816;48.506;9.050;2022-10-16T17:52:36;19.90;95.80
13488;DHT22;6816;48.506;9.050;2022-10-16T17:55:40;19.80;95.90
13488;DHT22;6816;48.506;9.050;2022-10-16T17:58:42;19.70;95.60
13488;DHT22;6816;48.506;9.050;2022-10-16T18:01:43;19.60;95.80
13488;DHT22;6816;48.506;9.050;2022-10-16T18:04:45;19.50;95.90
13488;DHT22;6816;48.506;9.050;2022-10-16T18:07:46;19.40;96.00
13488;DHT22;6816;48.506;9.050;2022-10-16T18:10:48;19.30;96.20
13488;DHT22;6816;48.506;9.050;2022-10-16T18:13:54;19.30;96.40
13488;DHT22;6816;48.506;9.050;2022-10-16T18:16:56;19.20;96.40
13488;DHT22;6816;48.506;9.050;2022-10-16T18:19:57;19.10;96.60
13488;DHT22;6816;48.506;9.050;2022-10-16T18:22:57;19.00;96.70
13488;DHT22;6816;48.506;9.050;2022-10-16T18:25:58;18.90;96.80
13488;DHT22;6816;48.506;9.050;2022-10-16T18:28:59;18.80;96.90
13488;DHT22;6816;48.506;9.050;2022-10-16T18:32:01;18.80;96.90
13488;DHT22;6816;48.506;9.050;2022-10-16T18:35:02;18.70;97.00
13488;DHT22;6816;48.506;9.050;2022-10-16T18:38:03;18.60;97.00
13488;DHT22;6816;48.506;9.050;2022-10-16T18:41:04;18.60;97.10
13488;DHT22;6816;48.506;9.050;2022-10-16T18:44:08;18.50;97.20
13488;DHT22;6816;48.506;9.050;2022-10-16T18:47:12;18.40;97.40
13488;DHT22;6816;48.506;9.050;2022-10-16T18:50:13;18.30;97.40
13488;DHT22;6816;48.506;9.050;2022-10-16T18:53:13;18.20;97.60
13488;DHT22;6816;48.506;9.050;2022-10-16T18:56:15;18.10;97.60
13488;DHT22;6816;48.506;9.050;2022-10-16T18:59:16;18.10;97.70
13488;DHT22;6816;48.506;9.050;2022-10-16T19:02:17;18.00;97.70
13488;DHT22;6816;48.506;9.050;2022-10-16T19:05:17;17.90;97.60
13488;DHT22;6816;48.506;9.050;2022-10-16T19:08:18;17.90;97.70
13488;DHT22;6816;48.506;9.050;2022-10-16T19:11:21;17.80;97.70
13488;DHT22;6816;48.506;9.050;2022-10-16T19:14:22;17.70;97.70
13488;DHT22;6816;48.506;9.050;2022-10-16T19:17:24;17.60;97.70
13488;DHT22;6816;48.506;9.050;2022-10-16T19:20:25;17.60;97.70
13488;DHT22;6816;48.506;9.050;2022-10-16T19:23:25;17.50;97.60
13488;DHT22;6816;48.506;9.050;2022-10-16T19:26:28;17.40;98.00
13488;DHT22;6816;48.506;9.050;2022-10-16T19:29:29;17.30;97.60
13488;DHT22;6816;48.506;9.050;2022-10-16T19:32:31;17.20;97.70
13488;DHT22;6816;48.506;9.050;2022-10-16T19:35:33;17.20;97.80
13488;DHT22;6816;48.506;9.050;2022-10-16T19:38:34;17.10;98.00
13488;DHT22;6816;48.506;9.050;2022-10-16T19:41:35;17.00;98.10
13488;DHT22;6816;48.506;9.050;2022-10-16T19:44:36;17.00;98.30
13488;DHT22;6816;48.506;9.050;2022-10-16T19:47:37;16.90;98.50
13488;DHT22;6816;48.506;9.050;2022-10-16T19:50:45;16.90;98.60
13488;DHT22;6816;48.506;9.050;2022-10-16T19:53:46;16.80;98.60
13488;DHT22;6816;48.506;9.050;2022-10-16T19:56:46;16.80;98.90
13488;DHT22;6816;48.506;9.050;2022-10-16T19:59:51;16.70;99.00
13488;DHT22;6816;48.506;9.050;2022-10-16T20:02:51;16.70;99.00
13488;DHT22;6816;48.506;9.050;2022-10-16T20:05:53;16.70;99.20
13488;DHT22;6816;48.506;9.050;2022-10-16T20:08:55;16.60;99.30
13488;DHT22;6816;48.506;9.050;2022-10-16T20:11:57;16.60;99.40
13488;DHT22;6816;48.506;9.050;2022-10-16T20:14:58;16.60;99.50
13488;DHT22;6816;48.506;9.050;2022-10-16T20:17:59;16.60;99.50
13488;DHT22;6816;48.506;9.050;2022-10-16T20:20:59;16.60;99.60
13488;DHT22;6816;48.506;9.050;2022-10-16T20:24:01;16.50;99.70
13488;DHT22;6816;48.506;9.050;2022-10-16T20:27:04;16.50;99.60
13488;DHT22;6816;48.506;9.050;2022-10-16T20:30:05;16.40;99.60
13488;DHT22;6816;48.506;9.050;2022-10-16T20:33:06;16.40;99.40
13488;DHT22;6816;48.506;9.050;2022-10-16T20:36:12;16.40;99.40
13488;DHT22;6816;48.506;9.050;2022-10-16T20:39:13;16.30;99.10
13488;DHT22;6816;48.506;9.050;2022-10-16T20:42:14;16.30;99.30
13488;DHT22;6816;48.506;9.050;2022-10-16T20:45:14;16.20;99.30
13488;DHT22;6816;48.506;9.050;2022-10-16T20:48:15;16.20;99.30
13488;DHT22;6816;48.506;9.050;2022-10-16T20:51:27;16.10;99.30
13488;DHT22;6816;48.506;9.050;2022-10-16T20:54:28;16.00;99.10
13488;DHT22;6816;48.506;9.050;2022-10-16T20:57:29;16.00;99.30
13488;DHT22;6816;48.506;9.050;2022-10-16T21:00:30;15.90;99.30
13488;DHT22;6816;48.506;9.050;2022-10-16T21:03:30;15.90;99.50
13488;DHT22;6816;48.506;9.050;2022-10-16T21:06:32;15.80;99.60